Airport ICAO


07:28 UTC

10°C

Clear skies


An affordable passengers' Moving Map for your aircraft. Made for the iPad and the iPhone
More information here

LFPG Charles De Gaulle


Paris FRANCE   VFR CAVOK


METAR LFPG 200700Z 19003KT CAVOK 10/08 Q1023 NOSIG 0h28min

TAF LFPG 200500Z 2006/2112 16003KT CAVOK PROB40 TEMPO 2006/2007 4000 BR PROB30 TEMPO 2006/2007 0400 BCFG SCT001 BECMG 2009/2011 19005KT BECMG 2020/2022 13005KT TX18/2014Z TN08/2105Z 2h28min





NOTAMS

OPEN